Time;durP1;ratioP1;P1;durP2;ratioP2;P2;SDS_P1;SDS_P2;PMS_P1;PMS_P2;Temp;Humidity;BMP_temperature;BMP_pressure;BME280_temperature;BME280_humidity;BME280_pressure;Samples;Min_cycle;Max_cycle;Signal;HPM_P1;HPM_P2
2022/09/02 00:01:36;;;;;;;2.13;1.47;;;13.30;97.30;;;;;;5029158;28;20434;-89
2022/09/02 00:04:05;;;;;;;1.97;1.83;;;13.30;97.30;;;;;;5043172;28;20415;-88
2022/09/02 00:06:32;;;;;;;2.70;2.10;;;13.30;97.30;;;;;;5023691;28;20422;-87
2022/09/02 00:08:58;;;;;;;3.57;1.50;;;13.30;97.30;;;;;;5035734;28;20478;-88
2022/09/02 00:11:26;;;;;;;1.77;1.60;;;13.30;97.30;;;;;;5028790;28;20506;-88
2022/09/02 00:13:53;;;;;;;3.90;1.70;;;13.30;97.30;;;;;;5045581;28;20422;-88
2022/09/02 00:16:19;;;;;;;1.50;1.40;;;13.20;97.30;;;;;;5049574;28;20421;-87
2022/09/02 00:18:46;;;;;;;1.97;1.70;;;13.20;97.30;;;;;;5053519;28;20414;-88
2022/09/02 00:21:13;;;;;;;1.63;1.60;;;13.20;97.30;;;;;;5053233;28;20429;-87
2022/09/02 00:23:39;;;;;;;1.30;1.30;;;13.20;97.30;;;;;;5023074;28;20469;-88
2022/09/02 00:26:05;;;;;;;2.60;2.00;;;13.20;97.30;;;;;;5035575;28;20488;-88
2022/09/02 00:28:30;;;;;;;2.37;2.17;;;13.20;97.30;;;;;;5035169;28;20486;-88
2022/09/02 00:30:56;;;;;;;2.37;1.93;;;13.20;97.30;;;;;;5025927;28;20247;-88
2022/09/02 00:33:22;;;;;;;2.30;1.70;;;13.20;97.30;;;;;;5032807;28;20195;-89
2022/09/02 00:35:48;;;;;;;1.77;1.70;;;13.10;97.30;;;;;;5035489;28;20426;-87
2022/09/02 00:38:13;;;;;;;1.70;1.60;;;13.10;97.30;;;;;;5035146;28;20180;-87
2022/09/02 04:44:41;;;;;;;2.27;2.07;;;11.50;97.30;;;;;;5044495;28;20851;-94
2022/09/02 04:47:07;;;;;;;2.83;1.60;;;11.50;97.30;;;;;;5040999;28;20435;-95
2022/09/02 04:49:35;;;;;;;1.70;1.60;;;11.50;97.30;;;;;;5025502;28;20164;-95
2022/09/02 04:52:00;;;;;;;3.30;1.80;;;11.40;97.30;;;;;;5041083;28;20192;-94
2022/09/02 04:54:26;;;;;;;2.23;2.03;;;11.50;97.30;;;;;;5026267;28;20446;-94
2022/09/02 04:56:54;;;;;;;1.43;1.33;;;11.40;97.30;;;;;;5029618;28;20172;-94
2022/09/02 04:59:20;;;;;;;1.90;1.90;;;11.40;97.30;;;;;;5020185;28;20187;-94
2022/09/02 05:01:48;;;;;;;2.20;1.60;;;11.50;97.30;;;;;;5018983;28;20436;-92
2022/09/02 05:04:13;;;;;;;1.83;1.73;;;11.50;97.30;;;;;;5018268;28;20416;-94
2022/09/02 05:06:41;;;;;;;2.43;1.93;;;11.50;97.30;;;;;;5002154;28;20412;-94
2022/09/02 05:09:09;;;;;;;3.33;1.93;;;11.50;97.30;;;;;;5003015;28;20220;-93
2022/09/02 05:11:35;;;;;;;1.90;1.73;;;11.60;97.30;;;;;;5021009;28;20436;-95
2022/09/02 05:14:05;;;;;;;1.87;1.80;;;11.60;97.30;;;;;;5003662;28;20404;-94
2022/09/02 05:16:44;;;;;;;2.03;1.67;;;11.60;97.30;;;;;;5011640;28;20657;-93
2022/09/02 05:19:12;;;;;;;1.97;1.83;;;11.70;97.30;;;;;;5006163;28;20436;-94
2022/09/02 05:21:40;;;;;;;7.37;1.83;;;11.70;97.30;;;;;;5008638;28;20470;-94
2022/09/02 05:24:05;;;;;;;8.80;2.90;;;11.70;97.30;;;;;;5013399;28;20827;-94
2022/09/02 05:26:34;;;;;;;2.00;1.90;;;11.80;97.30;;;;;;5001653;28;20416;-94
2022/09/02 05:29:14;;;;;;;1.57;1.50;;;11.80;97.30;;;;;;5005639;28;20196;-96
2022/09/02 05:31:42;;;;;;;1.93;1.83;;;11.80;97.30;;;;;;5004191;28;20443;-96
2022/09/02 05:34:15;;;;;;;1.70;1.60;;;11.90;97.30;;;;;;5021291;28;20416;-94
2022/09/02 05:36:40;;;;;;;2.40;1.80;;;11.90;97.30;;;;;;5005957;28;20433;-95
2022/09/02 05:39:06;;;;;;;1.57;1.57;;;11.90;97.30;;;;;;5036973;28;20430;-93
2022/09/02 05:41:32;;;;;;;1.70;1.60;;;12.00;97.30;;;;;;5010522;28;20231;-95
2022/09/02 05:44:11;;;;;;;2.47;2.27;;;12.00;97.30;;;;;;5002738;28;20312;-93
2022/09/02 05:46:40;;;;;;;2.60;1.63;;;12.10;97.30;;;;;;5022104;28;20181;-95
2022/09/02 05:49:11;;;;;;;3.67;2.10;;;12.10;97.30;;;;;;5024590;28;20463;-94
2022/09/02 05:51:44;;;;;;;2.60;2.23;;;12.20;97.30;;;;;;4997147;28;20440;-94
2022/09/02 05:54:20;;;;;;;4.33;1.57;;;12.20;97.30;;;;;;4982468;28;20424;-93
2022/09/02 05:56:52;;;;;;;2.20;1.80;;;12.20;97.30;;;;;;4997629;28;20463;-93
2022/09/02 05:59:25;;;;;;;2.60;2.10;;;12.30;97.30;;;;;;5000760;28;20437;-94
2022/09/02 06:01:52;;;;;;;2.77;2.30;;;12.30;97.30;;;;;;5001381;28;20440;-94
2022/09/02 06:04:25;;;;;;;4.97;1.67;;;12.40;97.30;;;;;;5002768;28;20420;-93
2022/09/02 06:06:51;;;;;;;2.93;2.73;;;12.40;97.30;;;;;;5001842;28;20788;-94
2022/09/02 06:09:23;;;;;;;2.77;1.83;;;12.50;97.30;;;;;;5002687;28;20530;-93
2022/09/02 06:11:52;;;;;;;3.00;2.70;;;12.50;97.30;;;;;;5003300;28;20443;-95
2022/09/02 06:14:20;;;;;;;1.83;1.73;;;12.60;97.30;;;;;;5003433;28;20505;-94
2022/09/02 06:16:49;;;;;;;1.90;1.80;;;12.60;97.30;;;;;;5002340;28;20503;-94
2022/09/02 06:19:15;;;;;;;1.80;1.47;;;12.70;97.30;;;;;;5002445;28;20510;-93
2022/09/02 06:21:41;;;;;;;1.70;1.67;;;12.70;97.30;;;;;;5018864;28;20428;-94
2022/09/02 06:24:09;;;;;;;2.53;2.30;;;12.80;97.30;;;;;;5019629;28;20192;-94
2022/09/02 06:26:36;;;;;;;1.93;1.83;;;12.90;97.30;;;;;;4987524;28;20426;-93
2022/09/02 06:29:03;;;;;;;2.80;2.60;;;12.90;97.30;;;;;;4983200;28;20463;-94
2022/09/02 06:31:31;;;;;;;2.37;2.03;;;13.00;97.30;;;;;;5002601;28;20448;-93
2022/09/02 06:34:03;;;;;;;5.63;2.17;;;13.00;97.30;;;;;;5007375;28;20443;-93
2022/09/02 06:36:30;;;;;;;2.53;2.03;;;13.10;97.30;;;;;;5018984;28;20444;-95
2022/09/02 06:38:57;;;;;;;1.70;1.60;;;13.20;97.30;;;;;;5008643;28;20515;-93
2022/09/02 06:41:27;;;;;;;1.70;1.63;;;13.30;97.30;;;;;;5002974;28;20441;-94
2022/09/02 06:43:55;;;;;;;2.20;1.60;;;13.30;97.30;;;;;;5003687;28;20498;-94
2022/09/02 06:46:25;;;;;;;3.40;1.60;;;13.40;97.30;;;;;;5003604;28;20474;-93
2022/09/02 06:48:51;;;;;;;1.53;1.43;;;13.50;97.30;;;;;;4989168;28;20469;-94
2022/09/02 06:51:22;;;;;;;1.90;1.80;;;13.60;97.30;;;;;;5003626;28;20440;-93
2022/09/02 06:53:51;;;;;;;1.43;1.33;;;13.70;97.30;;;;;;4989234;28;20515;-94
2022/09/02 06:56:16;;;;;;;2.27;2.10;;;13.80;97.30;;;;;;5052850;23;20987;-91
2022/09/02 06:58:42;;;;;;;1.87;1.77;;;14.00;97.30;;;;;;5022507;28;20478;-90
2022/09/02 07:01:13;;;;;;;2.10;1.30;;;14.10;97.30;;;;;;5007616;28;20531;-91
2022/09/02 07:06:26;;;;;;;1.43;1.33;;;14.30;97.30;;;;;;5015743;28;20450;-91
2022/09/02 07:08:51;;;;;;;1.40;1.30;;;14.40;97.30;;;;;;4996147;28;20452;-91
2022/09/02 07:11:22;;;;;;;1.50;1.40;;;14.50;97.30;;;;;;5005403;28;20844;-89
2022/09/02 07:13:52;;;;;;;1.50;1.10;;;14.60;97.30;;;;;;5002673;28;20255;-91
2022/09/02 07:16:31;;;;;;;1.87;1.73;;;14.70;97.30;;;;;;4996483;28;20465;-90
2022/09/02 07:19:04;;;;;;;1.50;1.47;;;14.80;97.30;;;;;;5009648;28;20436;-90
2022/09/02 07:21:30;;;;;;;1.40;1.30;;;15.00;97.30;;;;;;5006250;28;20420;-91
2022/09/02 07:24:02;;;;;;;1.40;1.30;;;15.10;97.30;;;;;;5012287;28;20420;-90
2022/09/02 07:26:34;;;;;;;1.17;1.07;;;15.20;97.30;;;;;;5007320;28;20442;-92
2022/09/02 07:28:59;;;;;;;1.17;1.17;;;15.30;97.30;;;;;;4997258;28;20456;-92
2022/09/02 07:31:28;;;;;;;1.37;1.20;;;15.40;97.30;;;;;;5004940;28;20839;-91
2022/09/02 07:33:57;;;;;;;2.80;1.57;;;15.50;97.30;;;;;;5003925;28;20445;-90
2022/09/02 07:36:24;;;;;;;1.50;1.40;;;15.60;97.30;;;;;;4995808;28;21016;-90
2022/09/02 07:38:53;;;;;;;3.33;1.73;;;15.80;97.30;;;;;;5002986;28;20432;-90
2022/09/02 07:41:22;;;;;;;1.43;1.33;;;15.90;97.30;;;;;;4997369;28;20424;-91
2022/09/02 07:43:56;;;;;;;1.27;1.17;;;16.00;97.30;;;;;;4988604;28;20433;-92
2022/09/02 07:46:24;;;;;;;1.40;1.30;;;16.10;97.30;;;;;;4996902;28;20985;-90
2022/09/02 07:48:52;;;;;;;3.63;1.50;;;16.20;97.30;;;;;;5024378;28;20463;-94
2022/09/02 07:51:25;;;;;;;1.30;1.20;;;16.30;97.30;;;;;;5029357;28;20492;-95
2022/09/02 07:53:53;;;;;;;1.30;1.20;;;16.40;97.30;;;;;;5018829;28;20442;-94
2022/09/02 07:56:22;;;;;;;2.70;1.50;;;16.50;97.30;;;;;;5029038;28;20477;-96
2022/09/02 07:58:55;;;;;;;1.57;1.10;;;16.60;97.30;;;;;;5024720;28;20489;-91
2022/09/02 08:01:23;;;;;;;1.33;1.23;;;16.70;97.30;;;;;;5009261;28;20424;-91
2022/09/02 08:04:02;;;;;;;1.30;1.20;;;16.90;97.30;;;;;;5017313;28;20462;-91
2022/09/02 08:06:36;;;;;;;1.73;1.63;;;17.00;97.30;;;;;;5008025;28;20479;-91
2022/09/02 08:09:14;;;;;;;1.20;1.10;;;17.10;97.30;;;;;;4988553;28;20452;-90
2022/09/02 08:11:45;;;;;;;1.10;1.00;;;17.30;97.30;;;;;;5002085;28;20416;-90
2022/09/02 08:17:04;;;;;;;1.10;1.00;;;17.50;95.90;;;;;;4994599;28;20408;-91
2022/09/02 08:19:32;;;;;;;1.13;1.03;;;17.60;95.50;;;;;;5018761;28;20430;-91
2022/09/02 08:22:04;;;;;;;1.20;1.10;;;17.70;94.90;;;;;;4988133;28;20197;-91
2022/09/02 08:24:32;;;;;;;1.20;1.10;;;17.70;95.10;;;;;;5031202;28;20418;-94
2022/09/02 08:27:05;;;;;;;2.13;1.80;;;17.80;94.80;;;;;;5000395;28;20408;-90
2022/09/02 08:29:34;;;;;;;0.80;0.80;;;17.90;94.50;;;;;;5013202;28;20416;-91
2022/09/02 08:32:02;;;;;;;1.10;1.00;;;18.00;93.80;;;;;;5007689;28;20415;-92
2022/09/02 08:34:32;;;;;;;1.03;0.97;;;18.10;93.90;;;;;;5016058;28;20404;-91
2022/09/02 08:37:15;;;;;;;1.10;1.00;;;18.20;93.40;;;;;;5016526;28;20393;-93
2022/09/02 08:39:43;;;;;;;1.20;1.10;;;18.30;93.90;;;;;;5003110;28;20424;-92
2022/09/02 08:42:21;;;;;;;1.40;1.30;;;18.40;93.40;;;;;;5016074;28;20428;-91
2022/09/02 08:45:12;;;;;;;1.50;1.33;;;18.50;93.30;;;;;;5016439;28;20447;-90
2022/09/02 08:50:45;;;;;;;2.30;1.10;;;18.50;92.90;;;;;;5007275;28;20746;-90
2022/09/02 08:53:23;;;;;;;1.50;1.37;;;18.60;93.20;;;;;;5019409;28;20483;-91
2022/09/02 08:56:02;;;;;;;1.30;1.23;;;18.70;92.90;;;;;;5016079;28;20977;-92
2022/09/02 09:01:51;;;;;;;1.10;1.00;;;18.90;91.70;;;;;;5011836;28;20436;-91
2022/09/02 09:04:22;;;;;;;1.10;1.00;;;19.00;92.10;;;;;;5014629;28;20446;-91
2022/09/02 09:06:53;;;;;;;1.20;1.10;;;19.10;92.40;;;;;;5004086;28;20970;-91
2022/09/02 09:09:33;;;;;;;1.00;0.90;;;19.20;91.30;;;;;;5018012;28;21007;-92
2022/09/02 09:12:11;;;;;;;2.30;1.47;;;19.30;91.20;;;;;;5014097;28;20455;-92
2022/09/02 09:15:02;;;;;;;2.70;1.33;;;19.40;90.50;;;;;;5008179;28;20432;-92
2022/09/02 09:17:48;;;;;;;;;;;;;;;;;;;;;
2022/09/02 09:20:32;;;;;;;1.10;1.00;;;19.60;90.10;;;;;;5016299;28;20422;-91
2022/09/02 09:23:56;;;;;;;1.03;1.00;;;19.70;89.40;;;;;;5011741;28;20420;-91
2022/09/02 09:26:46;;;;;;;1.30;1.20;;;19.70;85.50;;;;;;4925035;29;20450;-92
2022/09/02 09:29:12;;;;;;;1.10;1.00;;;19.70;86.50;;;;;;4921197;28;20549;-91
2022/09/02 09:32:25;;;;;;;3.97;1.73;;;19.80;86.30;;;;;;5005439;28;20411;-91
2022/09/02 09:34:51;;;;;;;2.67;2.47;;;19.80;85.70;;;;;;5028349;28;20812;-92
2022/09/02 09:37:41;;;;;;;2.10;1.03;;;19.90;85.50;;;;;;5008373;28;20855;-91
2022/09/02 09:40:24;;;;;;;6.80;1.40;;;19.90;84.10;;;;;;5014752;28;20416;-91
2022/09/02 09:43:13;;;;;;;1.23;1.13;;;20.00;85.10;;;;;;5020273;28;20431;-92
2022/09/02 09:45:42;;;;;;;1.00;0.90;;;20.10;85.20;;;;;;5036249;28;20483;-92
2022/09/02 09:48:55;;;;;;;1.40;1.30;;;20.20;85.50;;;;;;5018889;28;20472;-93
2022/09/02 09:51:23;;;;;;;1.00;0.90;;;20.40;84.90;;;;;;4996929;28;20432;-91
2022/09/02 09:53:52;;;;;;;0.93;0.87;;;20.50;83.70;;;;;;5012543;28;20848;-92
2022/09/02 09:56:26;;;;;;;1.10;1.00;;;20.50;85.00;;;;;;5017378;28;20544;-91
2022/09/02 09:58:54;;;;;;;1.20;1.10;;;20.60;84.30;;;;;;5015276;28;20428;-92
2022/09/02 10:01:52;;;;;;;1.23;1.13;;;20.70;84.40;;;;;;5009061;28;20420;-91
2022/09/02 10:05:12;;;;;;;1.17;1.07;;;20.80;84.10;;;;;;4992054;28;20731;-92
2022/09/02 10:08:03;;;;;;;1.10;1.00;;;20.80;83.80;;;;;;5009955;28;20462;-92
2022/09/02 10:10:34;;;;;;;0.90;0.80;;;20.80;82.80;;;;;;5020269;28;20427;-92
2022/09/02 10:13:24;;;;;;;0.80;0.80;;;20.90;84.30;;;;;;5017407;28;20423;-91
2022/09/02 10:16:12;;;;;;;1.93;1.37;;;21.00;83.60;;;;;;4992933;28;20877;-91
2022/09/02 10:19:05;;;;;;;2.00;1.10;;;21.10;83.70;;;;;;5016351;28;20937;-91
2022/09/02 10:22:05;;;;;;;4.50;1.50;;;21.20;83.40;;;;;;5000948;28;21030;-91
2022/09/02 10:28:13;;;;;;;1.83;1.60;;;21.20;81.90;;;;;;5020482;28;20455;-92
2022/09/02 10:30:56;;;;;;;1.00;0.90;;;21.20;81.70;;;;;;4988741;28;20452;-92
2022/09/02 10:33:54;;;;;;;1.50;1.27;;;21.20;82.20;;;;;;5008083;28;20434;-91
2022/09/02 10:40:15;;;;;;;1.20;1.10;;;21.30;79.70;;;;;;5009319;28;20415;-91
2022/09/02 10:43:03;;;;;;;1.10;1.00;;;21.30;78.50;;;;;;5017772;28;20515;-91
2022/09/02 10:45:42;;;;;;;1.77;1.23;;;21.30;79.10;;;;;;4997594;28;20479;-92
2022/09/02 10:48:45;;;;;;;0.80;0.80;;;21.30;80.40;;;;;;4992064;28;20466;-90
2022/09/02 10:51:25;;;;;;;1.00;0.90;;;21.40;79.70;;;;;;4985036;28;20804;-90
2022/09/02 10:53:59;;;;;;;0.90;0.90;;;21.50;79.40;;;;;;4997802;28;20412;-90
2022/09/02 10:56:41;;;;;;;2.70;1.00;;;21.70;79.70;;;;;;4997650;28;20806;-91
2022/09/02 10:59:25;;;;;;;1.20;1.00;;;21.80;79.20;;;;;;4998289;28;21016;-91
2022/09/02 11:02:02;;;;;;;2.40;1.00;;;21.90;79.30;;;;;;5005476;28;20428;-92
2022/09/02 11:05:25;;;;;;;2.43;1.60;;;22.10;80.00;;;;;;5008091;28;20722;-91
2022/09/02 11:08:15;;;;;;;0.87;0.80;;;22.20;78.70;;;;;;5012348;28;20456;-91
2022/09/02 11:11:23;;;;;;;1.00;0.90;;;22.40;78.10;;;;;;4996445;28;20452;-91
2022/09/02 11:14:13;;;;;;;1.00;0.90;;;22.40;78.00;;;;;;5008141;28;20430;-90
2022/09/02 11:17:05;;;;;;;0.90;0.80;;;22.40;78.20;;;;;;5014460;28;20448;-92
2022/09/02 11:20:13;;;;;;;1.03;0.93;;;22.40;77.80;;;;;;5020678;28;20976;-91
2022/09/02 11:23:23;;;;;;;1.43;0.90;;;22.50;76.90;;;;;;5003711;28;20430;-91
2022/09/02 11:26:16;;;;;;;1.10;1.00;;;22.50;75.60;;;;;;5014863;28;20502;-91
2022/09/02 11:29:02;;;;;;;1.20;1.10;;;22.30;75.20;;;;;;4998665;28;20550;-93
2022/09/02 11:31:43;;;;;;;1.10;1.00;;;22.20;76.60;;;;;;4999541;28;20433;-91
2022/09/02 11:35:01;;;;;;;0.90;0.80;;;22.10;76.50;;;;;;5000787;28;20509;-89
2022/09/02 11:37:34;;;;;;;0.90;0.80;;;22.20;77.40;;;;;;5010063;28;20969;-92
2022/09/02 11:40:28;;;;;;;;;;;;;;;;;;;;;
2022/09/02 11:43:35;;;;;;;1.10;1.00;;;22.50;74.70;;;;;;5017953;28;20450;-89
2022/09/02 11:46:13;;;;;;;6.27;1.03;;;22.40;75.00;;;;;;4997545;28;20851;-91
2022/09/02 11:49:12;;;;;;;1.00;0.90;;;22.50;75.00;;;;;;4997231;28;20823;-90
2022/09/02 11:52:03;;;;;;;0.97;0.87;;;22.60;75.60;;;;;;4993999;28;20421;-88
2022/09/02 11:55:03;;;;;;;1.00;0.90;;;22.80;73.80;;;;;;4983313;28;20416;-89
2022/09/02 11:57:32;;;;;;;0.90;0.80;;;22.80;74.10;;;;;;5004136;28;20433;-90
2022/09/02 12:03:02;;;;;;;1.67;1.00;;;22.50;74.80;;;;;;4996061;28;20413;-90
2022/09/02 12:05:56;;;;;;;1.17;1.00;;;22.60;75.70;;;;;;5002623;28;20478;-91
2022/09/02 12:08:33;;;;;;;0.97;0.87;;;22.80;73.10;;;;;;5014452;28;20626;-90
2022/09/02 12:11:50;;;;;;;;;;;;;;;;;;;;;
2022/09/02 12:14:23;;;;;;;1.10;1.00;;;23.20;73.00;;;;;;5011337;28;20401;-90
2022/09/02 12:17:24;;;;;;;1.00;0.90;;;23.30;73.50;;;;;;5003568;28;20484;-92
2022/09/02 12:19:52;;;;;;;1.03;0.93;;;23.30;74.80;;;;;;4996512;28;20181;-92
2022/09/02 12:25:23;;;;;;;0.90;0.80;;;23.70;74.10;;;;;;5011899;28;20486;-91
2022/09/02 12:28:16;;;;;;;1.00;0.90;;;23.90;72.40;;;;;;4994122;28;20868;-91
2022/09/02 12:33:56;;;;;;;0.90;0.80;;;23.30;72.00;;;;;;5008114;28;20978;-92
2022/09/02 12:36:43;;;;;;;0.90;0.80;;;22.90;72.80;;;;;;4995611;28;20869;-91
2022/09/02 12:39:41;;;;;;;0.90;0.80;;;22.70;73.40;;;;;;5007482;28;20427;-90
2022/09/02 12:42:12;;;;;;;1.00;0.90;;;22.70;74.10;;;;;;5000441;28;20455;-92
2022/09/02 12:45:24;;;;;;;0.87;0.80;;;22.70;73.90;;;;;;4995073;28;20452;-92
2022/09/02 12:50:56;;;;;;;1.00;0.90;;;22.50;74.70;;;;;;4959465;29;20428;-92
2022/09/02 12:56:34;;;;;;;1.40;1.10;;;22.30;74.80;;;;;;5015884;28;20539;-90
2022/09/02 12:59:03;;;;;;;1.23;1.13;;;22.20;74.60;;;;;;5001100;28;20476;-89
2022/09/02 13:02:02;;;;;;;1.00;0.90;;;22.10;74.90;;;;;;4996805;28;20660;-90
2022/09/02 13:04:55;;;;;;;0.90;0.87;;;22.20;75.30;;;;;;5010121;28;20607;-90
2022/09/02 13:07:45;;;;;;;0.70;0.70;;;22.30;74.40;;;;;;5029057;28;20428;-91
2022/09/02 13:10:35;;;;;;;1.97;1.50;;;22.30;74.20;;;;;;4994211;28;20459;-89
2022/09/02 13:13:22;;;;;;;1.20;1.07;;;22.20;75.60;;;;;;5007406;28;20424;-90
2022/09/02 13:16:09;;;;;;;1.10;1.00;;;22.20;75.60;;;;;;5038371;22;20507;-87
2022/09/02 13:18:49;;;;;;;1.10;1.00;;;22.30;76.50;;;;;;5012204;28;20466;-87
2022/09/02 13:21:40;;;;;;;0.90;0.80;;;22.40;75.10;;;;;;5021593;28;20983;-88
2022/09/02 13:24:39;;;;;;;1.20;1.10;;;22.30;74.50;;;;;;5011008;28;20416;-87
2022/09/02 13:27:38;;;;;;;2.03;1.00;;;22.20;75.20;;;;;;5017686;28;20434;-87
2022/09/02 13:30:38;;;;;;;1.00;0.93;;;22.20;75.50;;;;;;5026145;28;20428;-87
2022/09/02 13:33:10;;;;;;;1.73;1.27;;;22.10;74.70;;;;;;5027559;28;21197;-87
2022/09/02 13:35:40;;;;;;;1.20;1.10;;;22.10;74.40;;;;;;5024671;28;20463;-87
2022/09/02 13:38:12;;;;;;;1.50;1.40;;;22.00;74.60;;;;;;5011992;28;20424;-88
2022/09/02 13:40:39;;;;;;;0.90;0.80;;;22.00;75.00;;;;;;5024007;28;20444;-87
2022/09/02 13:43:14;;;;;;;1.13;1.03;;;22.10;75.10;;;;;;5007191;28;20424;-86
2022/09/02 13:45:40;;;;;;;1.10;0.90;;;22.50;76.90;;;;;;5027157;28;20440;-87
2022/09/02 13:48:13;;;;;;;1.00;0.90;;;22.90;76.50;;;;;;5008331;28;20444;-87
2022/09/02 13:50:44;;;;;;;2.13;1.00;;;23.40;76.00;;;;;;5013923;28;20428;-87
2022/09/02 13:53:31;;;;;;;1.10;1.00;;;23.80;75.00;;;;;;5029842;28;20424;-87
2022/09/02 13:55:58;;;;;;;1.00;0.90;;;23.90;74.30;;;;;;5013075;28;20443;-86
2022/09/02 13:58:29;;;;;;;1.00;0.90;;;23.70;73.10;;;;;;5016673;28;20420;-86
2022/09/02 14:01:08;;;;;;;1.67;1.53;;;23.50;72.80;;;;;;4998912;28;20534;-87
2022/09/02 14:03:34;;;;;;;1.13;1.03;;;23.40;73.60;;;;;;5007037;28;20435;-90
2022/09/02 14:06:06;;;;;;;0.90;0.90;;;23.60;73.60;;;;;;5010967;28;20511;-87
2022/09/02 14:08:32;;;;;;;0.90;0.80;;;23.90;73.10;;;;;;5012998;28;20595;-88
2022/09/02 14:11:01;;;;;;;0.93;0.83;;;24.10;72.30;;;;;;5016589;28;20420;-86
2022/09/02 14:13:27;;;;;;;1.70;0.80;;;24.10;72.30;;;;;;5028946;28;20177;-87
2022/09/02 14:15:52;;;;;;;0.90;0.80;;;23.90;71.60;;;;;;5028648;28;20460;-87
2022/09/02 14:18:20;;;;;;;0.90;0.80;;;23.70;72.90;;;;;;5012604;28;20193;-87
2022/09/02 14:20:58;;;;;;;1.20;1.10;;;23.40;72.90;;;;;;5012998;28;20581;-87
2022/09/02 14:23:25;;;;;;;0.93;0.83;;;23.20;74.10;;;;;;5012907;28;20938;-91
2022/09/02 14:25:54;;;;;;;2.80;1.50;;;23.00;72.90;;;;;;5012803;28;20455;-85
2022/09/02 14:28:23;;;;;;;1.30;0.87;;;22.80;73.40;;;;;;5013561;28;20459;-89
2022/09/02 14:30:56;;;;;;;1.00;1.00;;;22.60;74.30;;;;;;5012752;28;20494;-86
2022/09/02 14:33:24;;;;;;;1.00;0.93;;;22.50;74.70;;;;;;5012828;28;20438;-86
2022/09/02 14:36:14;;;;;;;1.20;1.10;;;22.40;75.10;;;;;;5013789;28;20910;-85
2022/09/02 14:38:48;;;;;;;0.90;0.80;;;22.40;74.80;;;;;;5012811;28;20938;-86
2022/09/02 14:41:16;;;;;;;1.20;1.10;;;22.30;74.20;;;;;;5012398;28;20420;-87
2022/09/02 14:43:47;;;;;;;1.00;0.90;;;22.20;74.60;;;;;;5012667;28;20427;-86
2022/09/02 14:46:22;;;;;;;1.00;0.80;;;22.10;74.70;;;;;;5003944;28;20444;-86
2022/09/02 14:49:01;;;;;;;1.00;0.90;;;22.00;74.10;;;;;;5012414;28;20465;-87
2022/09/02 14:51:36;;;;;;;1.57;0.90;;;21.90;75.80;;;;;;4999178;28;20809;-85
2022/09/02 14:54:03;;;;;;;1.10;1.00;;;21.90;75.60;;;;;;5012623;28;20931;-86
2022/09/02 14:56:50;;;;;;;3.53;1.03;;;21.80;75.70;;;;;;5006967;28;20441;-86
2022/09/02 14:59:17;;;;;;;1.10;1.00;;;21.80;75.80;;;;;;5008070;28;20489;-85
2022/09/02 15:01:50;;;;;;;1.57;0.90;;;21.80;75.50;;;;;;5012804;28;20424;-85
2022/09/02 15:04:17;;;;;;;1.20;1.07;;;21.70;75.80;;;;;;5013610;28;20789;-85
2022/09/02 15:06:42;;;;;;;1.23;0.93;;;21.70;76.20;;;;;;5011580;28;20530;-85
2022/09/02 15:09:08;;;;;;;1.47;0.90;;;21.70;76.20;;;;;;5012141;28;20572;-86
2022/09/02 15:11:37;;;;;;;0.90;0.80;;;21.60;76.20;;;;;;5019119;28;20227;-86
2022/09/02 15:14:02;;;;;;;1.20;1.10;;;21.50;75.90;;;;;;5012031;28;20428;-86
2022/09/02 15:16:28;;;;;;;1.73;1.07;;;21.40;76.00;;;;;;5011389;28;20514;-83
2022/09/02 15:18:53;;;;;;;4.53;0.93;;;21.40;76.30;;;;;;5011837;28;20193;-85
2022/09/02 15:21:19;;;;;;;1.00;0.90;;;21.30;76.80;;;;;;5012199;28;20280;-86
2022/09/02 15:23:45;;;;;;;1.10;1.10;;;21.30;76.90;;;;;;5012216;28;20173;-87
2022/09/02 15:26:11;;;;;;;1.20;1.10;;;21.30;76.90;;;;;;5014036;28;20850;-86
2022/09/02 15:28:37;;;;;;;6.50;1.63;;;21.30;77.30;;;;;;5028206;28;20209;-86
2022/09/02 15:31:03;;;;;;;1.27;1.10;;;21.30;77.70;;;;;;5012025;28;20247;-85
2022/09/02 15:33:29;;;;;;;1.10;1.00;;;21.30;78.00;;;;;;5010238;28;20188;-87
2022/09/02 15:36:03;;;;;;;1.13;1.03;;;21.30;77.60;;;;;;5012024;28;20215;-86
2022/09/02 15:38:29;;;;;;;5.80;3.40;;;21.50;77.90;;;;;;5011232;28;20427;-85
2022/09/02 15:40:55;;;;;;;9.33;6.33;;;21.70;77.30;;;;;;5011813;28;20501;-88
2022/09/02 15:43:21;;;;;;;6.10;3.87;;;22.00;77.50;;;;;;4992721;28;20561;-86
2022/09/02 15:45:47;;;;;;;1.50;1.40;;;22.40;77.60;;;;;;5005998;28;20459;-86
2022/09/02 15:48:13;;;;;;;3.33;1.10;;;22.80;76.00;;;;;;5011760;28;20833;-88
2022/09/02 15:50:38;;;;;;;1.30;1.20;;;22.80;74.60;;;;;;5013323;28;20170;-86
2022/09/02 15:53:04;;;;;;;1.10;1.00;;;22.60;74.20;;;;;;5000873;28;20184;-86
2022/09/02 15:55:33;;;;;;;0.90;0.80;;;22.30;74.40;;;;;;5021052;28;20197;-88
2022/09/02 15:57:59;;;;;;;0.90;0.80;;;22.10;75.00;;;;;;4996549;28;20612;-85
2022/09/02 16:00:25;;;;;;;0.90;0.90;;;21.80;75.00;;;;;;5006244;28;20498;-86
2022/09/02 16:02:55;;;;;;;1.20;1.10;;;21.60;76.80;;;;;;5012094;28;20926;-87
2022/09/02 16:05:20;;;;;;;1.20;1.10;;;21.50;76.70;;;;;;5012131;28;20911;-86
2022/09/02 16:07:47;;;;;;;1.77;1.40;;;21.40;76.90;;;;;;5012037;28;20490;-86
2022/09/02 16:10:13;;;;;;;0.90;0.90;;;21.40;77.30;;;;;;5011976;28;20222;-85
2022/09/02 16:12:39;;;;;;;2.03;1.73;;;21.30;77.60;;;;;;5009701;28;20420;-87
2022/09/02 16:15:05;;;;;;;1.10;1.00;;;21.30;76.80;;;;;;5026328;28;20726;-87
2022/09/02 16:17:31;;;;;;;21.07;1.30;;;21.20;76.80;;;;;;5011082;28;20200;-86
2022/09/02 16:19:56;;;;;;;1.00;0.90;;;21.20;76.90;;;;;;5012629;28;20416;-86
2022/09/02 16:22:22;;;;;;;1.13;1.10;;;21.20;76.40;;;;;;5027446;28;20256;-86
2022/09/02 16:24:47;;;;;;;0.90;0.80;;;21.10;77.00;;;;;;5029351;28;20189;-86
2022/09/02 16:27:12;;;;;;;1.10;1.00;;;21.20;76.30;;;;;;5030081;28;20171;-87
2022/09/02 16:29:40;;;;;;;1.07;1.00;;;21.10;76.50;;;;;;5018699;28;20280;-86
2022/09/02 16:32:05;;;;;;;1.87;1.77;;;21.10;76.60;;;;;;5008015;28;20217;-88
2022/09/02 16:34:31;;;;;;;1.17;1.07;;;21.20;76.70;;;;;;5014235;28;20412;-85
2022/09/02 16:36:57;;;;;;;1.30;1.00;;;21.20;76.50;;;;;;5012416;28;20205;-86
2022/09/02 16:39:23;;;;;;;1.03;0.97;;;21.20;76.70;;;;;;5031751;28;20251;-87
2022/09/02 16:41:53;;;;;;;1.43;1.40;;;21.10;76.70;;;;;;5025640;28;20184;-87
2022/09/02 16:44:20;;;;;;;0.93;0.83;;;21.00;76.60;;;;;;5005819;28;20420;-86
2022/09/02 16:46:48;;;;;;;0.80;0.80;;;21.00;77.10;;;;;;5009088;28;20535;-86
2022/09/02 16:49:18;;;;;;;1.10;1.00;;;20.90;77.50;;;;;;5011946;28;20990;-88
2022/09/02 16:51:45;;;;;;;1.13;1.03;;;20.90;77.50;;;;;;5002394;28;20478;-86
2022/09/02 16:54:12;;;;;;;1.47;1.30;;;20.80;77.40;;;;;;5010638;28;20416;-86
2022/09/02 16:56:37;;;;;;;1.10;1.00;;;20.80;77.80;;;;;;5003434;28;20443;-87
2022/09/02 16:59:06;;;;;;;2.60;1.80;;;20.70;77.70;;;;;;5012286;28;20420;-86
2022/09/02 17:01:33;;;;;;;0.80;0.80;;;20.70;77.80;;;;;;5012240;28;20674;-85
2022/09/02 17:04:00;;;;;;;1.00;0.90;;;20.70;77.80;;;;;;5013511;28;20482;-87
2022/09/02 17:06:26;;;;;;;1.30;1.20;;;20.60;78.00;;;;;;5011821;28;20598;-87
2022/09/02 17:08:52;;;;;;;1.00;0.90;;;20.60;78.30;;;;;;5013112;28;20547;-87
2022/09/02 17:11:20;;;;;;;1.00;0.90;;;20.50;78.00;;;;;;5010688;28;20416;-86
2022/09/02 17:13:47;;;;;;;1.20;1.20;;;20.50;78.10;;;;;;5005937;28;20503;-87
2022/09/02 17:16:13;;;;;;;1.20;1.10;;;20.50;78.10;;;;;;5010657;28;21049;-86
2022/09/02 17:18:38;;;;;;;1.00;0.90;;;20.40;78.00;;;;;;5007581;28;20528;-87
2022/09/02 17:21:25;;;;;;;0.80;0.80;;;20.40;78.00;;;;;;5028198;28;20177;-86
2022/09/02 17:23:51;;;;;;;1.20;1.10;;;20.30;78.20;;;;;;5013013;28;20660;-85
2022/09/02 17:26:18;;;;;;;1.73;1.10;;;20.30;78.50;;;;;;5013400;28;20452;-87
2022/09/02 17:28:46;;;;;;;1.93;1.20;;;20.20;79.00;;;;;;5026354;28;20470;-88
2022/09/02 17:31:27;;;;;;;1.10;1.00;;;20.20;78.80;;;;;;5022203;28;20498;-86
2022/09/02 17:33:55;;;;;;;1.13;1.10;;;20.10;78.90;;;;;;5013449;28;20474;-87
2022/09/02 17:36:22;;;;;;;1.53;1.13;;;20.10;78.90;;;;;;5006417;28;21006;-87
2022/09/02 17:38:48;;;;;;;0.87;0.83;;;20.10;79.10;;;;;;5005342;28;20473;-86
2022/09/02 17:43:58;;;;;;;4.00;1.97;;;20.00;79.00;;;;;;5013879;28;20427;-86
2022/09/02 17:46:25;;;;;;;1.27;1.17;;;19.90;79.00;;;;;;5012579;28;20447;-86
2022/09/02 17:48:50;;;;;;;1.00;0.90;;;19.90;79.40;;;;;;5003107;28;20215;-87
2022/09/02 17:51:17;;;;;;;1.60;1.40;;;19.80;79.00;;;;;;5028263;28;20424;-86
2022/09/02 17:53:43;;;;;;;0.97;0.93;;;19.80;79.30;;;;;;5010176;28;20180;-88
2022/09/02 17:56:20;;;;;;;1.67;1.40;;;19.80;79.20;;;;;;4998049;28;20428;-86
2022/09/02 17:59:11;;;;;;;1.00;0.90;;;19.80;79.20;;;;;;5011930;28;20283;-87
2022/09/02 18:01:56;;;;;;;1.03;0.93;;;19.70;78.90;;;;;;4993178;28;20795;-86
2022/09/02 18:04:46;;;;;;;1.10;1.00;;;19.70;79.10;;;;;;4996163;28;20412;-88
2022/09/02 18:07:29;;;;;;;1.47;1.37;;;19.70;79.50;;;;;;5013426;28;20440;-87
2022/09/02 18:09:55;;;;;;;1.20;1.20;;;19.60;79.60;;;;;;5003557;28;20428;-87